sensor_id;sensor_type;location;lat;lon;timestamp;temperature;humidity
56374;DHT22;58212;47.034;7.376;2023-02-26T00:01:35;3.80;99.90
56374;DHT22;58212;47.034;7.376;2023-02-26T00:04:04;3.70;99.90
56374;DHT22;58212;47.034;7.376;2023-02-26T00:06:34;3.70;99.90
56374;DHT22;58212;47.034;7.376;2023-02-26T00:09:02;3.80;99.90
56374;DHT22;58212;47.034;7.376;2023-02-26T00:11:29;3.90;99.90
56374;DHT22;58212;47.034;7.376;2023-02-26T00:13:58;3.90;99.90
56374;DHT22;58212;47.034;7.376;2023-02-26T00:16:27;3.80;99.90
56374;DHT22;58212;47.034;7.376;2023-02-26T00:18:58;4.00;99.90
56374;DHT22;58212;47.034;7.376;2023-02-26T00:21:26;4.30;99.90
56374;DHT22;58212;47.034;7.376;2023-02-26T00:23:54;3.80;99.90
56374;DHT22;58212;47.034;7.376;2023-02-26T00:26:24;3.50;99.90
56374;DHT22;58212;47.034;7.376;2023-02-26T00:28:52;3.40;99.90
56374;DHT22;58212;47.034;7.376;2023-02-26T00:31:22;3.30;99.90
56374;DHT22;58212;47.034;7.376;2023-02-26T00:33:50;3.40;99.90
56374;DHT22;58212;47.034;7.376;2023-02-26T00:36:22;3.50;99.90
56374;DHT22;58212;47.034;7.376;2023-02-26T00:39:00;3.60;99.90
56374;DHT22;58212;47.034;7.376;2023-02-26T00:41:54;3.30;99.90
56374;DHT22;58212;47.034;7.376;2023-02-26T00:44:22;3.30;99.90
56374;DHT22;58212;47.034;7.376;2023-02-26T00:46:56;3.40;99.90
56374;DHT22;58212;47.034;7.376;2023-02-26T00:49:47;3.50;99.90
56374;DHT22;58212;47.034;7.376;2023-02-26T00:52:22;3.30;99.90
56374;DHT22;58212;47.034;7.376;2023-02-26T00:54:50;3.20;99.90
56374;DHT22;58212;47.034;7.376;2023-02-26T00:57:17;2.90;99.90
56374;DHT22;58212;47.034;7.376;2023-02-26T00:59:45;3.10;99.90
56374;DHT22;58212;47.034;7.376;2023-02-26T01:02:13;3.00;99.90
56374;DHT22;58212;47.034;7.376;2023-02-26T01:04:41;2.80;99.90
56374;DHT22;58212;47.034;7.376;2023-02-26T01:07:09;2.60;99.90
56374;DHT22;58212;47.034;7.376;2023-02-26T01:09:37;3.00;99.90
56374;DHT22;58212;47.034;7.376;2023-02-26T01:12:06;2.60;99.90
56374;DHT22;58212;47.034;7.376;2023-02-26T01:14:35;2.20;99.90
56374;DHT22;58212;47.034;7.376;2023-02-26T01:17:12;2.50;99.90
56374;DHT22;58212;47.034;7.376;2023-02-26T01:20:14;2.70;99.90
56374;DHT22;58212;47.034;7.376;2023-02-26T01:22:47;2.80;99.90
56374;DHT22;58212;47.034;7.376;2023-02-26T01:25:22;2.70;99.90
56374;DHT22;58212;47.034;7.376;2023-02-26T01:27:50;2.80;99.90
56374;DHT22;58212;47.034;7.376;2023-02-26T01:30:19;3.00;99.90
56374;DHT22;58212;47.034;7.376;2023-02-26T01:32:50;2.50;99.90
56374;DHT22;58212;47.034;7.376;2023-02-26T01:35:31;2.30;99.90
56374;DHT22;58212;47.034;7.376;2023-02-26T01:38:08;2.50;99.90
56374;DHT22;58212;47.034;7.376;2023-02-26T01:41:08;2.60;99.90
56374;DHT22;58212;47.034;7.376;2023-02-26T01:43:43;2.90;99.90
56374;DHT22;58212;47.034;7.376;2023-02-26T01:46:16;2.50;99.90
56374;DHT22;58212;47.034;7.376;2023-02-26T01:48:50;2.60;99.90
56374;DHT22;58212;47.034;7.376;2023-02-26T01:51:42;2.30;99.90
56374;DHT22;58212;47.034;7.376;2023-02-26T01:54:10;2.20;99.90
56374;DHT22;58212;47.034;7.376;2023-02-26T01:56:37;2.10;99.90
56374;DHT22;58212;47.034;7.376;2023-02-26T01:59:06;2.50;99.90
56374;DHT22;58212;47.034;7.376;2023-02-26T02:01:35;2.40;99.90
56374;DHT22;58212;47.034;7.376;2023-02-26T02:04:06;2.10;99.90
56374;DHT22;58212;47.034;7.376;2023-02-26T02:06:34;2.30;99.90
56374;DHT22;58212;47.034;7.376;2023-02-26T02:09:04;2.00;99.90
56374;DHT22;58212;47.034;7.376;2023-02-26T02:11:34;1.90;99.90
56374;DHT22;58212;47.034;7.376;2023-02-26T02:14:11;2.10;99.90
56374;DHT22;58212;47.034;7.376;2023-02-26T02:16:47;2.20;99.90
56374;DHT22;58212;47.034;7.376;2023-02-26T02:22:19;2.40;99.90
56374;DHT22;58212;47.034;7.376;2023-02-26T02:25:06;1.80;99.90
56374;DHT22;58212;47.034;7.376;2023-02-26T02:28:05;1.80;99.90
56374;DHT22;58212;47.034;7.376;2023-02-26T02:31:07;1.80;99.90
56374;DHT22;58212;47.034;7.376;2023-02-26T02:34:03;2.00;99.90
56374;DHT22;58212;47.034;7.376;2023-02-26T02:37:00;1.90;99.90
56374;DHT22;58212;47.034;7.376;2023-02-26T02:39:58;1.90;99.90
56374;DHT22;58212;47.034;7.376;2023-02-26T02:42:54;2.20;99.90
56374;DHT22;58212;47.034;7.376;2023-02-26T02:45:28;2.30;99.90
56374;DHT22;58212;47.034;7.376;2023-02-26T02:48:00;2.30;99.90
56374;DHT22;58212;47.034;7.376;2023-02-26T02:50:33;2.00;99.90
56374;DHT22;58212;47.034;7.376;2023-02-26T02:53:03;2.20;99.90
56374;DHT22;58212;47.034;7.376;2023-02-26T02:56:00;1.90;99.90
56374;DHT22;58212;47.034;7.376;2023-02-26T02:58:31;1.80;99.90
56374;DHT22;58212;47.034;7.376;2023-02-26T03:01:03;1.60;99.90
56374;DHT22;58212;47.034;7.376;2023-02-26T03:03:42;1.80;99.90
56374;DHT22;58212;47.034;7.376;2023-02-26T03:06:10;2.00;99.90
56374;DHT22;58212;47.034;7.376;2023-02-26T03:08:39;2.20;99.90
56374;DHT22;58212;47.034;7.376;2023-02-26T03:11:08;2.10;99.90
56374;DHT22;58212;47.034;7.376;2023-02-26T03:13:36;2.20;99.90
56374;DHT22;58212;47.034;7.376;2023-02-26T03:16:21;2.00;99.90
56374;DHT22;58212;47.034;7.376;2023-02-26T03:18:59;2.00;99.90
56374;DHT22;58212;47.034;7.376;2023-02-26T03:21:38;2.20;99.90
56374;DHT22;58212;47.034;7.376;2023-02-26T03:24:19;1.60;99.90
56374;DHT22;58212;47.034;7.376;2023-02-26T03:26:57;1.80;99.90
56374;DHT22;58212;47.034;7.376;2023-02-26T03:29:54;1.70;99.90
56374;DHT22;58212;47.034;7.376;2023-02-26T03:32:26;1.90;99.90
56374;DHT22;58212;47.034;7.376;2023-02-26T03:35:00;1.90;99.90
56374;DHT22;58212;47.034;7.376;2023-02-26T03:37:33;1.90;99.90
56374;DHT22;58212;47.034;7.376;2023-02-26T03:40:06;1.70;99.90
56374;DHT22;58212;47.034;7.376;2023-02-26T03:42:39;1.20;99.90
56374;DHT22;58212;47.034;7.376;2023-02-26T03:45:34;1.30;99.90
56374;DHT22;58212;47.034;7.376;2023-02-26T03:48:04;1.30;99.90
56374;DHT22;58212;47.034;7.376;2023-02-26T03:50:37;1.30;99.90
56374;DHT22;58212;47.034;7.376;2023-02-26T03:53:43;1.30;99.90
56374;DHT22;58212;47.034;7.376;2023-02-26T03:56:19;1.10;99.90
56374;DHT22;58212;47.034;7.376;2023-02-26T03:59:12;1.40;99.90
56374;DHT22;58212;47.034;7.376;2023-02-26T04:01:48;1.60;99.90
56374;DHT22;58212;47.034;7.376;2023-02-26T04:04:24;1.50;99.90
56374;DHT22;58212;47.034;7.376;2023-02-26T04:06:54;1.40;99.90
56374;DHT22;58212;47.034;7.376;2023-02-26T04:09:21;1.10;99.90
56374;DHT22;58212;47.034;7.376;2023-02-26T04:11:50;0.80;99.90
56374;DHT22;58212;47.034;7.376;2023-02-26T04:14:18;0.90;99.90
56374;DHT22;58212;47.034;7.376;2023-02-26T04:16:46;0.90;99.90
56374;DHT22;58212;47.034;7.376;2023-02-26T04:19:14;0.90;99.90
56374;DHT22;58212;47.034;7.376;2023-02-26T04:21:41;0.90;99.90
56374;DHT22;58212;47.034;7.376;2023-02-26T04:24:14;0.80;99.90
56374;DHT22;58212;47.034;7.376;2023-02-26T04:26:43;0.60;99.90
56374;DHT22;58212;47.034;7.376;2023-02-26T04:29:10;0.60;99.90
56374;DHT22;58212;47.034;7.376;2023-02-26T04:31:37;0.60;99.90
56374;DHT22;58212;47.034;7.376;2023-02-26T04:34:04;0.60;99.90
56374;DHT22;58212;47.034;7.376;2023-02-26T04:36:31;0.80;99.90
56374;DHT22;58212;47.034;7.376;2023-02-26T04:38:58;0.80;99.90
56374;DHT22;58212;47.034;7.376;2023-02-26T04:41:27;0.70;99.90
56374;DHT22;58212;47.034;7.376;2023-02-26T04:43:54;0.80;99.90
56374;DHT22;58212;47.034;7.376;2023-02-26T04:46:28;0.70;99.90
56374;DHT22;58212;47.034;7.376;2023-02-26T04:48:56;0.90;99.90
56374;DHT22;58212;47.034;7.376;2023-02-26T04:51:24;1.00;99.90
56374;DHT22;58212;47.034;7.376;2023-02-26T04:53:51;0.90;99.90
56374;DHT22;58212;47.034;7.376;2023-02-26T04:56:19;0.90;99.90
56374;DHT22;58212;47.034;7.376;2023-02-26T04:58:49;0.90;99.90
56374;DHT22;58212;47.034;7.376;2023-02-26T05:01:21;0.80;99.90
56374;DHT22;58212;47.034;7.376;2023-02-26T05:03:49;0.90;99.90
56374;DHT22;58212;47.034;7.376;2023-02-26T05:06:16;0.60;99.90
56374;DHT22;58212;47.034;7.376;2023-02-26T05:08:43;0.60;99.90
56374;DHT22;58212;47.034;7.376;2023-02-26T05:11:10;0.70;99.90
56374;DHT22;58212;47.034;7.376;2023-02-26T05:13:37;0.70;99.90
56374;DHT22;58212;47.034;7.376;2023-02-26T05:16:07;0.50;99.90
56374;DHT22;58212;47.034;7.376;2023-02-26T05:18:35;0.30;99.90
56374;DHT22;58212;47.034;7.376;2023-02-26T05:21:03;0.20;99.90
56374;DHT22;58212;47.034;7.376;2023-02-26T05:23:32;0.30;99.90
56374;DHT22;58212;47.034;7.376;2023-02-26T05:25:59;0.40;99.90
56374;DHT22;58212;47.034;7.376;2023-02-26T05:28:26;0.20;99.90
56374;DHT22;58212;47.034;7.376;2023-02-26T05:30:55;0.30;99.90
56374;DHT22;58212;47.034;7.376;2023-02-26T05:33:23;0.10;99.90
56374;DHT22;58212;47.034;7.376;2023-02-26T05:35:50;0.10;99.90
56374;DHT22;58212;47.034;7.376;2023-02-26T05:38:18;0.00;99.90
56374;DHT22;58212;47.034;7.376;2023-02-26T05:40:44;-0.10;99.90
56374;DHT22;58212;47.034;7.376;2023-02-26T05:43:15;-0.20;99.90
56374;DHT22;58212;47.034;7.376;2023-02-26T05:45:42;0.00;99.90
56374;DHT22;58212;47.034;7.376;2023-02-26T05:48:08;0.20;99.90
56374;DHT22;58212;47.034;7.376;2023-02-26T05:50:37;0.40;99.90
56374;DHT22;58212;47.034;7.376;2023-02-26T05:53:06;0.40;99.90
56374;DHT22;58212;47.034;7.376;2023-02-26T05:55:33;0.20;99.90
56374;DHT22;58212;47.034;7.376;2023-02-26T05:58:04;0.00;99.90
56374;DHT22;58212;47.034;7.376;2023-02-26T06:00:31;0.10;99.90
56374;DHT22;58212;47.034;7.376;2023-02-26T06:02:57;0.10;99.90
56374;DHT22;58212;47.034;7.376;2023-02-26T06:05:25;-0.10;99.90
56374;DHT22;58212;47.034;7.376;2023-02-26T06:07:53;0.20;99.90
56374;DHT22;58212;47.034;7.376;2023-02-26T06:10:20;0.10;99.90
56374;DHT22;58212;47.034;7.376;2023-02-26T06:12:48;0.00;99.90
56374;DHT22;58212;47.034;7.376;2023-02-26T06:15:15;0.20;99.90
56374;DHT22;58212;47.034;7.376;2023-02-26T06:17:43;0.20;99.90
56374;DHT22;58212;47.034;7.376;2023-02-26T06:20:10;0.00;99.90
56374;DHT22;58212;47.034;7.376;2023-02-26T06:22:37;-0.10;99.90
56374;DHT22;58212;47.034;7.376;2023-02-26T06:25:07;-0.30;99.90
56374;DHT22;58212;47.034;7.376;2023-02-26T06:27:34;-0.10;99.90
56374;DHT22;58212;47.034;7.376;2023-02-26T06:30:02;0.00;99.90
56374;DHT22;58212;47.034;7.376;2023-02-26T06:32:29;-0.20;99.90
56374;DHT22;58212;47.034;7.376;2023-02-26T06:34:58;0.00;99.90
56374;DHT22;58212;47.034;7.376;2023-02-26T06:37:25;0.10;99.90
56374;DHT22;58212;47.034;7.376;2023-02-26T06:39:52;-0.10;99.90
56374;DHT22;58212;47.034;7.376;2023-02-26T06:42:21;0.00;99.90
56374;DHT22;58212;47.034;7.376;2023-02-26T06:44:48;-0.10;99.90
56374;DHT22;58212;47.034;7.376;2023-02-26T06:47:15;-0.20;99.90
56374;DHT22;58212;47.034;7.376;2023-02-26T06:49:42;-0.10;99.90
56374;DHT22;58212;47.034;7.376;2023-02-26T06:52:09;0.00;99.90
56374;DHT22;58212;47.034;7.376;2023-02-26T06:54:35;0.00;99.90
56374;DHT22;58212;47.034;7.376;2023-02-26T06:57:06;0.20;99.90
56374;DHT22;58212;47.034;7.376;2023-02-26T06:59:34;0.30;99.90
56374;DHT22;58212;47.034;7.376;2023-02-26T07:02:02;0.20;99.90
56374;DHT22;58212;47.034;7.376;2023-02-26T07:04:29;-0.20;99.90
56374;DHT22;58212;47.034;7.376;2023-02-26T07:06:56;-0.10;99.90
56374;DHT22;58212;47.034;7.376;2023-02-26T07:09:22;-0.30;99.90
56374;DHT22;58212;47.034;7.376;2023-02-26T07:11:53;0.20;99.90
56374;DHT22;58212;47.034;7.376;2023-02-26T07:14:20;0.30;99.90
56374;DHT22;58212;47.034;7.376;2023-02-26T07:16:50;0.40;99.90
56374;DHT22;58212;47.034;7.376;2023-02-26T07:19:17;0.10;99.90
56374;DHT22;58212;47.034;7.376;2023-02-26T07:21:45;0.30;99.90
56374;DHT22;58212;47.034;7.376;2023-02-26T07:24:13;0.30;99.90
56374;DHT22;58212;47.034;7.376;2023-02-26T07:26:41;0.40;99.90
56374;DHT22;58212;47.034;7.376;2023-02-26T07:29:11;0.20;99.90
56374;DHT22;58212;47.034;7.376;2023-02-26T07:31:38;0.00;99.90
56374;DHT22;58212;47.034;7.376;2023-02-26T07:34:07;0.30;99.90
56374;DHT22;58212;47.034;7.376;2023-02-26T07:36:35;0.30;99.90
56374;DHT22;58212;47.034;7.376;2023-02-26T07:39:02;0.30;99.90
56374;DHT22;58212;47.034;7.376;2023-02-26T07:41:29;0.40;99.90
56374;DHT22;58212;47.034;7.376;2023-02-26T07:43:56;0.30;99.90
56374;DHT22;58212;47.034;7.376;2023-02-26T07:46:27;0.30;99.90
56374;DHT22;58212;47.034;7.376;2023-02-26T07:48:54;0.40;99.90
56374;DHT22;58212;47.034;7.376;2023-02-26T07:51:48;0.10;99.90
56374;DHT22;58212;47.034;7.376;2023-02-26T07:54:19;0.00;99.90
56374;DHT22;58212;47.034;7.376;2023-02-26T07:56:46;-0.20;99.90
56374;DHT22;58212;47.034;7.376;2023-02-26T07:59:37;-0.20;99.90
56374;DHT22;58212;47.034;7.376;2023-02-26T08:02:05;0.00;99.90
56374;DHT22;58212;47.034;7.376;2023-02-26T08:04:32;0.30;99.90
56374;DHT22;58212;47.034;7.376;2023-02-26T08:07:00;0.50;99.90
56374;DHT22;58212;47.034;7.376;2023-02-26T08:09:27;0.40;99.90
56374;DHT22;58212;47.034;7.376;2023-02-26T08:11:55;0.40;99.90
56374;DHT22;58212;47.034;7.376;2023-02-26T08:14:22;0.40;99.90
56374;DHT22;58212;47.034;7.376;2023-02-26T08:16:51;0.30;99.90
56374;DHT22;58212;47.034;7.376;2023-02-26T08:19:18;0.50;99.90
56374;DHT22;58212;47.034;7.376;2023-02-26T08:21:46;0.50;99.90
56374;DHT22;58212;47.034;7.376;2023-02-26T08:24:14;0.00;99.90
56374;DHT22;58212;47.034;7.376;2023-02-26T08:26:41;0.00;99.90
56374;DHT22;58212;47.034;7.376;2023-02-26T08:29:09;0.20;99.90
56374;DHT22;58212;47.034;7.376;2023-02-26T08:31:37;1.20;99.90
56374;DHT22;58212;47.034;7.376;2023-02-26T08:34:04;1.30;99.90
56374;DHT22;58212;47.034;7.376;2023-02-26T08:36:55;1.20;99.90
56374;DHT22;58212;47.034;7.376;2023-02-26T08:42:44;1.00;99.90
56374;DHT22;58212;47.034;7.376;2023-02-26T08:45:13;1.00;99.90
56374;DHT22;58212;47.034;7.376;2023-02-26T08:47:40;1.10;99.90
56374;DHT22;58212;47.034;7.376;2023-02-26T08:50:09;1.30;99.90
56374;DHT22;58212;47.034;7.376;2023-02-26T08:52:38;1.30;99.90
56374;DHT22;58212;47.034;7.376;2023-02-26T08:55:05;1.10;99.90
56374;DHT22;58212;47.034;7.376;2023-02-26T08:57:59;0.90;99.90
56374;DHT22;58212;47.034;7.376;2023-02-26T09:00:50;0.80;99.90
56374;DHT22;58212;47.034;7.376;2023-02-26T09:03:19;0.80;99.90
56374;DHT22;58212;47.034;7.376;2023-02-26T09:05:46;0.60;99.90
56374;DHT22;58212;47.034;7.376;2023-02-26T09:08:13;0.50;99.90
56374;DHT22;58212;47.034;7.376;2023-02-26T09:10:41;0.60;99.90
56374;DHT22;58212;47.034;7.376;2023-02-26T09:13:10;0.60;99.90
56374;DHT22;58212;47.034;7.376;2023-02-26T09:15:36;0.60;99.90
56374;DHT22;58212;47.034;7.376;2023-02-26T09:18:04;0.70;99.90
56374;DHT22;58212;47.034;7.376;2023-02-26T09:20:31;0.70;99.90
56374;DHT22;58212;47.034;7.376;2023-02-26T09:22:58;0.60;99.90
56374;DHT22;58212;47.034;7.376;2023-02-26T09:25:25;0.80;99.90
56374;DHT22;58212;47.034;7.376;2023-02-26T09:27:52;0.90;99.90
56374;DHT22;58212;47.034;7.376;2023-02-26T09:30:20;0.60;99.90
56374;DHT22;58212;47.034;7.376;2023-02-26T09:32:48;0.40;99.90
56374;DHT22;58212;47.034;7.376;2023-02-26T09:35:15;0.70;99.90
56374;DHT22;58212;47.034;7.376;2023-02-26T09:37:41;0.50;99.90
56374;DHT22;58212;47.034;7.376;2023-02-26T09:40:16;0.40;99.90
56374;DHT22;58212;47.034;7.376;2023-02-26T09:43:10;0.20;99.90
56374;DHT22;58212;47.034;7.376;2023-02-26T09:45:41;0.40;99.90
56374;DHT22;58212;47.034;7.376;2023-02-26T09:48:11;0.40;99.90
56374;DHT22;58212;47.034;7.376;2023-02-26T09:50:42;0.20;99.90
56374;DHT22;58212;47.034;7.376;2023-02-26T09:53:15;0.50;99.90
56374;DHT22;58212;47.034;7.376;2023-02-26T09:55:46;0.40;99.90
56374;DHT22;58212;47.034;7.376;2023-02-26T09:58:18;0.50;99.90
56374;DHT22;58212;47.034;7.376;2023-02-26T10:01:17;0.40;99.90
56374;DHT22;58212;47.034;7.376;2023-02-26T10:04:48;0.50;99.90
56374;DHT22;58212;47.034;7.376;2023-02-26T10:08:13;0.70;99.90
56374;DHT22;58212;47.034;7.376;2023-02-26T10:11:09;1.00;99.90
56374;DHT22;58212;47.034;7.376;2023-02-26T10:14:05;1.00;99.90
56374;DHT22;58212;47.034;7.376;2023-02-26T10:17:14;0.80;99.90
56374;DHT22;58212;47.034;7.376;2023-02-26T10:20:13;0.70;99.90
56374;DHT22;58212;47.034;7.376;2023-02-26T10:23:14;0.60;99.90
56374;DHT22;58212;47.034;7.376;2023-02-26T10:26:34;0.60;99.90
56374;DHT22;58212;47.034;7.376;2023-02-26T10:29:33;0.80;99.90
56374;DHT22;58212;47.034;7.376;2023-02-26T10:32:14;0.20;99.90
56374;DHT22;58212;47.034;7.376;2023-02-26T10:34:46;0.50;99.90
56374;DHT22;58212;47.034;7.376;2023-02-26T10:37:18;0.40;99.90
56374;DHT22;58212;47.034;7.376;2023-02-26T10:39:50;0.50;99.90
56374;DHT22;58212;47.034;7.376;2023-02-26T10:42:22;0.40;99.90
56374;DHT22;58212;47.034;7.376;2023-02-26T10:45:00;0.40;99.90
56374;DHT22;58212;47.034;7.376;2023-02-26T10:47:44;0.80;99.90
56374;DHT22;58212;47.034;7.376;2023-02-26T10:50:38;0.90;99.90
56374;DHT22;58212;47.034;7.376;2023-02-26T10:53:33;0.70;99.90
56374;DHT22;58212;47.034;7.376;2023-02-26T10:56:04;0.80;99.90
56374;DHT22;58212;47.034;7.376;2023-02-26T10:58:32;0.60;99.90
56374;DHT22;58212;47.034;7.376;2023-02-26T11:00:59;0.60;99.90
56374;DHT22;58212;47.034;7.376;2023-02-26T11:03:31;0.70;99.90
56374;DHT22;58212;47.034;7.376;2023-02-26T11:06:01;0.70;99.90
56374;DHT22;58212;47.034;7.376;2023-02-26T11:08:33;0.60;99.90
56374;DHT22;58212;47.034;7.376;2023-02-26T11:11:02;0.50;99.90
56374;DHT22;58212;47.034;7.376;2023-02-26T11:13:32;0.50;99.90
56374;DHT22;58212;47.034;7.376;2023-02-26T11:16:02;0.40;99.90
56374;DHT22;58212;47.034;7.376;2023-02-26T11:18:38;0.60;99.90
56374;DHT22;58212;47.034;7.376;2023-02-26T11:21:16;0.70;99.90
56374;DHT22;58212;47.034;7.376;2023-02-26T11:24:14;0.60;99.90
56374;DHT22;58212;47.034;7.376;2023-02-26T11:27:12;0.90;99.90
56374;DHT22;58212;47.034;7.376;2023-02-26T11:29:43;0.80;99.90
56374;DHT22;58212;47.034;7.376;2023-02-26T11:32:16;1.10;99.90
56374;DHT22;58212;47.034;7.376;2023-02-26T11:34:48;1.00;99.90
56374;DHT22;58212;47.034;7.376;2023-02-26T11:37:18;1.20;99.90
56374;DHT22;58212;47.034;7.376;2023-02-26T11:39:51;1.10;99.90
56374;DHT22;58212;47.034;7.376;2023-02-26T11:42:25;1.00;99.90
56374;DHT22;58212;47.034;7.376;2023-02-26T11:44:53;1.30;99.90
56374;DHT22;58212;47.034;7.376;2023-02-26T11:47:23;1.40;99.90
56374;DHT22;58212;47.034;7.376;2023-02-26T11:49:54;1.30;99.90
56374;DHT22;58212;47.034;7.376;2023-02-26T11:52:28;1.50;99.90
56374;DHT22;58212;47.034;7.376;2023-02-26T11:54:59;1.20;99.90
56374;DHT22;58212;47.034;7.376;2023-02-26T11:57:30;1.10;99.90
56374;DHT22;58212;47.034;7.376;2023-02-26T11:59:59;1.10;99.90
56374;DHT22;58212;47.034;7.376;2023-02-26T12:02:32;1.00;99.90
56374;DHT22;58212;47.034;7.376;2023-02-26T12:05:04;1.00;99.90
56374;DHT22;58212;47.034;7.376;2023-02-26T12:07:36;1.00;99.90
56374;DHT22;58212;47.034;7.376;2023-02-26T12:10:33;0.90;99.90
56374;DHT22;58212;47.034;7.376;2023-02-26T12:13:08;0.80;99.90
56374;DHT22;58212;47.034;7.376;2023-02-26T12:15:41;0.80;99.90
56374;DHT22;58212;47.034;7.376;2023-02-26T12:18:31;0.80;99.90
56374;DHT22;58212;47.034;7.376;2023-02-26T12:21:14;1.00;99.90
56374;DHT22;58212;47.034;7.376;2023-02-26T12:26:39;0.90;99.90
56374;DHT22;58212;47.034;7.376;2023-02-26T12:29:23;1.10;99.90
56374;DHT22;58212;47.034;7.376;2023-02-26T12:32:22;1.00;99.90
56374;DHT22;58212;47.034;7.376;2023-02-26T12:38:00;1.40;99.90
56374;DHT22;58212;47.034;7.376;2023-02-26T12:41:15;1.40;99.90
56374;DHT22;58212;47.034;7.376;2023-02-26T12:43:49;1.40;99.90
56374;DHT22;58212;47.034;7.376;2023-02-26T12:46:29;1.20;99.90
56374;DHT22;58212;47.034;7.376;2023-02-26T12:49:27;1.50;99.90
56374;DHT22;58212;47.034;7.376;2023-02-26T12:52:18;1.70;99.90
56374;DHT22;58212;47.034;7.376;2023-02-26T12:55:16;1.80;99.90
56374;DHT22;58212;47.034;7.376;2023-02-26T12:58:18;2.10;99.90
56374;DHT22;58212;47.034;7.376;2023-02-26T13:01:24;2.40;99.90
56374;DHT22;58212;47.034;7.376;2023-02-26T13:10:27;1.40;99.90
56374;DHT22;58212;47.034;7.376;2023-02-26T13:13:12;1.00;99.90
56374;DHT22;58212;47.034;7.376;2023-02-26T13:15:57;1.20;99.90
56374;DHT22;58212;47.034;7.376;2023-02-26T13:18:37;1.70;99.90
56374;DHT22;58212;47.034;7.376;2023-02-26T13:21:20;1.30;99.90
56374;DHT22;58212;47.034;7.376;2023-02-26T13:23:55;1.40;99.90
56374;DHT22;58212;47.034;7.376;2023-02-26T13:26:50;0.90;99.90
56374;DHT22;58212;47.034;7.376;2023-02-26T13:29:25;0.50;99.90
56374;DHT22;58212;47.034;7.376;2023-02-26T13:31:57;0.70;99.90
56374;DHT22;58212;47.034;7.376;2023-02-26T13:34:34;0.60;99.90
56374;DHT22;58212;47.034;7.376;2023-02-26T13:37:04;0.60;99.90
56374;DHT22;58212;47.034;7.376;2023-02-26T13:39:38;0.70;99.90
56374;DHT22;58212;47.034;7.376;2023-02-26T13:42:21;0.80;99.90
56374;DHT22;58212;47.034;7.376;2023-02-26T13:45:01;0.90;99.90
56374;DHT22;58212;47.034;7.376;2023-02-26T13:47:51;0.90;99.90
56374;DHT22;58212;47.034;7.376;2023-02-26T13:50:27;0.80;99.90
56374;DHT22;58212;47.034;7.376;2023-02-26T13:53:03;0.80;99.90
56374;DHT22;58212;47.034;7.376;2023-02-26T13:55:41;0.90;99.90
56374;DHT22;58212;47.034;7.376;2023-02-26T13:58:35;1.00;99.90
56374;DHT22;58212;47.034;7.376;2023-02-26T14:01:10;1.20;99.90
56374;DHT22;58212;47.034;7.376;2023-02-26T14:03:44;1.00;99.90
56374;DHT22;58212;47.034;7.376;2023-02-26T14:06:35;1.10;99.90
56374;DHT22;58212;47.034;7.376;2023-02-26T14:09:15;1.10;99.90
56374;DHT22;58212;47.034;7.376;2023-02-26T14:12:35;1.00;99.90
56374;DHT22;58212;47.034;7.376;2023-02-26T14:15:27;1.20;99.90
56374;DHT22;58212;47.034;7.376;2023-02-26T14:18:04;1.30;99.90
56374;DHT22;58212;47.034;7.376;2023-02-26T14:24:16;1.20;99.90
56374;DHT22;58212;47.034;7.376;2023-02-26T14:26:48;1.00;99.90
56374;DHT22;58212;47.034;7.376;2023-02-26T14:29:20;1.10;99.90
56374;DHT22;58212;47.034;7.376;2023-02-26T14:32:04;1.30;99.90
56374;DHT22;58212;47.034;7.376;2023-02-26T14:34:59;1.20;99.90
56374;DHT22;58212;47.034;7.376;2023-02-26T14:37:30;0.80;99.90
56374;DHT22;58212;47.034;7.376;2023-02-26T14:40:05;1.00;99.90
56374;DHT22;58212;47.034;7.376;2023-02-26T14:42:37;1.10;99.90
56374;DHT22;58212;47.034;7.376;2023-02-26T14:45:28;1.10;99.90
56374;DHT22;58212;47.034;7.376;2023-02-26T14:47:59;1.00;99.90
56374;DHT22;58212;47.034;7.376;2023-02-26T14:50:42;1.00;99.90
56374;DHT22;58212;47.034;7.376;2023-02-26T14:53:43;1.20;99.90
56374;DHT22;58212;47.034;7.376;2023-02-26T14:56:57;1.00;99.90
56374;DHT22;58212;47.034;7.376;2023-02-26T15:00:06;1.00;99.90
56374;DHT22;58212;47.034;7.376;2023-02-26T15:02:52;0.70;99.90
56374;DHT22;58212;47.034;7.376;2023-02-26T15:05:49;0.80;99.90
56374;DHT22;58212;47.034;7.376;2023-02-26T15:08:35;0.90;99.90
56374;DHT22;58212;47.034;7.376;2023-02-26T15:11:20;0.90;99.90
56374;DHT22;58212;47.034;7.376;2023-02-26T15:14:10;1.30;99.90
56374;DHT22;58212;47.034;7.376;2023-02-26T15:16:51;1.30;99.90
56374;DHT22;58212;47.034;7.376;2023-02-26T15:19:33;1.40;99.90
56374;DHT22;58212;47.034;7.376;2023-02-26T15:22:23;1.30;99.90
56374;DHT22;58212;47.034;7.376;2023-02-26T15:24:51;1.00;99.90
56374;DHT22;58212;47.034;7.376;2023-02-26T15:27:19;1.00;99.90
56374;DHT22;58212;47.034;7.376;2023-02-26T15:29:48;1.00;99.90
56374;DHT22;58212;47.034;7.376;2023-02-26T15:32:22;0.90;99.90
56374;DHT22;58212;47.034;7.376;2023-02-26T15:34:57;0.60;99.90
56374;DHT22;58212;47.034;7.376;2023-02-26T15:37:28;0.70;99.90
56374;DHT22;58212;47.034;7.376;2023-02-26T15:39:59;0.50;99.90
56374;DHT22;58212;47.034;7.376;2023-02-26T15:42:30;0.30;99.90
56374;DHT22;58212;47.034;7.376;2023-02-26T15:45:00;0.40;99.90
56374;DHT22;58212;47.034;7.376;2023-02-26T15:47:29;0.40;99.90
56374;DHT22;58212;47.034;7.376;2023-02-26T15:49:57;0.10;99.90
56374;DHT22;58212;47.034;7.376;2023-02-26T15:52:26;0.00;99.90
56374;DHT22;58212;47.034;7.376;2023-02-26T15:54:56;0.00;99.90
56374;DHT22;58212;47.034;7.376;2023-02-26T15:57:25;0.00;99.90
56374;DHT22;58212;47.034;7.376;2023-02-26T15:59:59;0.10;99.90
56374;DHT22;58212;47.034;7.376;2023-02-26T16:02:30;0.00;99.90
56374;DHT22;58212;47.034;7.376;2023-02-26T16:05:00;0.30;99.90
56374;DHT22;58212;47.034;7.376;2023-02-26T16:07:27;0.30;99.90
56374;DHT22;58212;47.034;7.376;2023-02-26T16:09:54;0.30;99.90
56374;DHT22;58212;47.034;7.376;2023-02-26T16:12:28;0.20;99.90
56374;DHT22;58212;47.034;7.376;2023-02-26T16:15:00;0.30;99.90
56374;DHT22;58212;47.034;7.376;2023-02-26T16:17:30;0.50;99.90
56374;DHT22;58212;47.034;7.376;2023-02-26T16:20:02;0.60;99.90
56374;DHT22;58212;47.034;7.376;2023-02-26T16:22:35;0.60;99.90
56374;DHT22;58212;47.034;7.376;2023-02-26T16:25:07;0.50;99.90
56374;DHT22;58212;47.034;7.376;2023-02-26T16:27:35;0.60;99.90
56374;DHT22;58212;47.034;7.376;2023-02-26T16:30:04;0.70;99.90
56374;DHT22;58212;47.034;7.376;2023-02-26T16:32:33;0.90;99.90
56374;DHT22;58212;47.034;7.376;2023-02-26T16:35:10;0.60;99.90
56374;DHT22;58212;47.034;7.376;2023-02-26T16:37:43;0.70;99.90
56374;DHT22;58212;47.034;7.376;2023-02-26T16:40:17;0.70;99.90
56374;DHT22;58212;47.034;7.376;2023-02-26T16:42:51;0.70;99.90
56374;DHT22;58212;47.034;7.376;2023-02-26T16:45:24;0.80;99.90
56374;DHT22;58212;47.034;7.376;2023-02-26T16:47:56;0.70;99.90
56374;DHT22;58212;47.034;7.376;2023-02-26T16:50:27;0.80;99.90
56374;DHT22;58212;47.034;7.376;2023-02-26T16:52:59;0.80;99.90
56374;DHT22;58212;47.034;7.376;2023-02-26T16:55:30;0.90;99.90
56374;DHT22;58212;47.034;7.376;2023-02-26T16:57:57;0.80;99.90